createdAt,value
2023-02-16T00:01:56.006Z,51.60
2023-02-16T00:04:29.423Z,51.88
2023-02-16T00:06:57.948Z,52.03
2023-02-16T00:09:26.367Z,51.96
2023-02-16T00:12:13.588Z,52.11
2023-02-16T00:14:45.241Z,52.16
2023-02-16T00:17:14.365Z,52.18
2023-02-16T00:19:43.011Z,52.47
2023-02-16T00:22:11.773Z,52.39
2023-02-16T00:24:41.110Z,52.35
2023-02-16T00:27:14.227Z,52.67
2023-02-16T00:29:45.654Z,52.78
2023-02-16T00:32:15.084Z,52.89
2023-02-16T00:34:46.397Z,52.96
2023-02-16T00:37:15.350Z,52.92
2023-02-16T00:39:44.186Z,52.91
2023-02-16T00:42:26.525Z,52.97
2023-02-16T00:44:56.912Z,53.23
2023-02-16T00:47:39.099Z,53.00
2023-02-16T00:50:24.297Z,53.00
2023-02-16T00:52:53.006Z,52.96
2023-02-16T00:55:26.044Z,52.93
2023-02-16T00:58:02.693Z,52.94
2023-02-16T01:00:37.937Z,53.23
2023-02-16T01:03:11.830Z,53.28
2023-02-16T01:05:40.589Z,53.16
2023-02-16T01:08:32.516Z,53.36
2023-02-16T01:11:10.507Z,53.52
2023-02-16T01:13:47.550Z,53.57
2023-02-16T01:16:24.755Z,53.54
2023-02-16T01:18:54.167Z,53.51
2023-02-16T01:21:22.597Z,53.79
2023-02-16T01:23:50.839Z,53.57
2023-02-16T01:26:21.408Z,53.73
2023-02-16T01:28:50.816Z,53.77
2023-02-16T01:31:19.465Z,53.65
2023-02-16T01:33:48.083Z,53.89
2023-02-16T01:36:24.298Z,54.07
2023-02-16T01:38:52.840Z,54.13
2023-02-16T01:41:40.354Z,54.10
2023-02-16T01:44:12.001Z,54.03
2023-02-16T01:46:42.394Z,54.08
2023-02-16T01:49:15.148Z,53.98
2023-02-16T01:51:49.462Z,54.22
2023-02-16T01:54:34.146Z,53.82
2023-02-16T01:57:08.946Z,54.24
2023-02-16T01:59:37.501Z,54.16
2023-02-16T02:02:17.759Z,54.24
2023-02-16T02:05:08.733Z,54.35
2023-02-16T02:07:56.396Z,54.63
2023-02-16T02:10:50.562Z,54.54
2023-02-16T02:13:29.709Z,54.41
2023-02-16T02:15:59.164Z,54.68
2023-02-16T02:18:28.229Z,54.78
2023-02-16T02:21:40.080Z,54.73
2023-02-16T02:24:08.557Z,54.45
2023-02-16T02:26:56.105Z,54.50
2023-02-16T02:30:00.446Z,54.58
2023-02-16T02:32:47.346Z,54.49
2023-02-16T02:35:42.918Z,54.32
2023-02-16T02:38:13.445Z,54.71
2023-02-16T02:40:47.257Z,54.74
2023-02-16T02:43:33.353Z,54.99
2023-02-16T02:46:16.684Z,55.17
2023-02-16T02:48:45.551Z,55.24
2023-02-16T02:51:29.040Z,55.42
2023-02-16T02:54:26.104Z,55.63
2023-02-16T02:57:28.565Z,55.75
2023-02-16T03:00:26.357Z,55.81
2023-02-16T03:03:34.354Z,55.75
2023-02-16T03:06:33.246Z,55.87
2023-02-16T03:09:11.681Z,56.06
2023-02-16T03:12:00.276Z,55.99
2023-02-16T03:14:29.014Z,55.98
2023-02-16T03:17:17.721Z,56.17
2023-02-16T03:20:06.824Z,56.39
2023-02-16T03:22:54.504Z,56.45
2023-02-16T03:25:42.427Z,56.53
2023-02-16T03:28:29.855Z,56.58
2023-02-16T03:30:59.347Z,56.47
2023-02-16T03:33:27.967Z,56.51
2023-02-16T03:35:56.343Z,56.46
2023-02-16T03:38:25.965Z,56.07
2023-02-16T03:40:54.682Z,55.70
2023-02-16T03:43:26.513Z,55.40
2023-02-16T03:45:54.879Z,55.22
2023-02-16T03:48:23.264Z,55.32
2023-02-16T03:50:52.112Z,55.17
2023-02-16T03:53:21.356Z,55.37
2023-02-16T03:55:49.852Z,55.09
2023-02-16T03:58:21.282Z,54.87
2023-02-16T04:00:50.138Z,54.87
2023-02-16T04:03:19.805Z,55.05
2023-02-16T04:05:49.292Z,55.14
2023-02-16T04:08:18.967Z,55.38
2023-02-16T04:10:48.170Z,55.25
2023-02-16T04:13:17.219Z,55.23
2023-02-16T04:15:45.713Z,55.27
2023-02-16T04:18:14.323Z,55.35
2023-02-16T04:20:43.557Z,55.67
2023-02-16T04:23:12.494Z,55.95
2023-02-16T04:25:41.154Z,56.18
2023-02-16T04:28:11.373Z,56.14
2023-02-16T04:30:39.791Z,56.24
2023-02-16T04:33:08.478Z,56.29
2023-02-16T04:35:38.659Z,56.27
2023-02-16T04:38:07.080Z,56.27
2023-02-16T04:40:36.200Z,56.38
2023-02-16T04:43:04.627Z,56.24
2023-02-16T04:45:33.387Z,56.24
2023-02-16T04:48:01.784Z,56.17
2023-02-16T04:50:30.401Z,56.12
2023-02-16T04:52:59.249Z,56.15
2023-02-16T04:55:27.839Z,56.18
2023-02-16T04:57:56.334Z,56.16
2023-02-16T05:00:25.880Z,56.43
2023-02-16T05:02:54.402Z,56.50
2023-02-16T05:05:22.704Z,56.52
2023-02-16T05:07:50.948Z,56.55
2023-02-16T05:10:20.870Z,56.60
2023-02-16T05:13:08.264Z,56.57
2023-02-16T05:15:37.064Z,56.58
2023-02-16T05:18:10.067Z,56.72
2023-02-16T05:20:59.281Z,56.72
2023-02-16T05:23:27.691Z,56.85
2023-02-16T05:25:56.183Z,56.85
2023-02-16T05:28:25.666Z,57.01
2023-02-16T05:30:54.172Z,57.03
2023-02-16T05:33:24.160Z,57.06
2023-02-16T05:35:52.285Z,57.22
2023-02-16T05:38:20.812Z,57.27
2023-02-16T05:40:49.636Z,57.47
2023-02-16T05:43:19.327Z,57.19
2023-02-16T05:45:47.688Z,57.40
2023-02-16T05:48:15.963Z,57.27
2023-02-16T05:50:44.744Z,57.18
2023-02-16T05:53:15.216Z,57.17
2023-02-16T05:55:46.587Z,57.08
2023-02-16T05:58:17.325Z,57.14
2023-02-16T06:00:45.697Z,56.97
2023-02-16T06:03:14.155Z,56.71
2023-02-16T06:05:43.199Z,56.62
2023-02-16T06:08:17.389Z,56.71
2023-02-16T06:10:46.324Z,56.61
2023-02-16T06:13:17.513Z,56.78
2023-02-16T06:15:46.590Z,56.28
2023-02-16T06:18:15.186Z,56.04
2023-02-16T06:20:44.666Z,55.53
2023-02-16T06:23:13.164Z,55.38
2023-02-16T06:25:45.990Z,55.15
2023-02-16T06:28:15.546Z,55.18
2023-02-16T06:30:44.751Z,55.26
2023-02-16T06:33:13.789Z,54.96
2023-02-16T06:35:42.749Z,54.79
2023-02-16T06:38:11.352Z,54.83
2023-02-16T06:40:39.612Z,55.02
2023-02-16T06:43:08.246Z,54.99
2023-02-16T06:45:36.988Z,55.22
2023-02-16T06:48:05.932Z,54.70
2023-02-16T06:50:34.415Z,53.84
2023-02-16T06:53:05.173Z,53.59
2023-02-16T06:55:36.931Z,54.02
2023-02-16T06:58:07.193Z,53.82
2023-02-16T07:00:36.141Z,53.41
2023-02-16T07:03:04.651Z,53.33
2023-02-16T07:05:33.485Z,53.18
2023-02-16T07:08:01.961Z,52.93
2023-02-16T07:10:40.384Z,52.88
2023-02-16T07:13:16.262Z,52.64
2023-02-16T07:15:46.816Z,52.81
2023-02-16T07:18:15.122Z,52.75
2023-02-16T07:20:46.124Z,52.26
2023-02-16T07:23:14.537Z,52.35
2023-02-16T07:25:42.840Z,52.45
2023-02-16T07:32:25.077Z,51.67
2023-02-16T07:34:53.717Z,51.90
2023-02-16T07:37:22.080Z,51.98
2023-02-16T07:39:50.645Z,52.05
2023-02-16T07:42:20.444Z,52.17
2023-02-16T07:44:49.294Z,52.33
2023-02-16T07:47:18.476Z,52.37
2023-02-16T07:49:47.428Z,52.17
2023-02-16T07:52:15.745Z,52.15
2023-02-16T07:54:47.299Z,52.42
2023-02-16T07:57:15.834Z,52.37
2023-02-16T07:59:44.657Z,52.30
2023-02-16T08:02:17.336Z,52.20
2023-02-16T08:04:47.126Z,52.03
2023-02-16T08:07:18.181Z,52.23
2023-02-16T08:09:47.089Z,52.44
2023-02-16T08:12:16.783Z,52.72
2023-02-16T08:14:46.849Z,52.81
2023-02-16T08:17:17.678Z,52.81
2023-02-16T08:19:46.511Z,52.92
2023-02-16T08:22:15.064Z,53.07
2023-02-16T08:24:44.105Z,53.22
2023-02-16T08:27:12.627Z,53.46
2023-02-16T08:29:42.311Z,53.30
2023-02-16T08:32:11.984Z,53.55
2023-02-16T08:34:58.133Z,52.89
2023-02-16T08:37:26.609Z,52.83
2023-02-16T08:39:56.354Z,52.71
2023-02-16T08:42:24.737Z,52.70
2023-02-16T08:44:53.133Z,52.36
2023-02-16T08:47:21.704Z,52.45
2023-02-16T08:49:50.211Z,52.53
2023-02-16T08:52:19.359Z,52.74
2023-02-16T08:54:49.012Z,52.49
2023-02-16T08:57:18.903Z,52.57
2023-02-16T09:00:07.495Z,52.71
2023-02-16T09:02:36.456Z,52.55
2023-02-16T09:05:05.572Z,52.73
2023-02-16T09:07:35.119Z,52.17
2023-02-16T09:10:04.472Z,51.89
2023-02-16T09:12:37.621Z,51.61
2023-02-16T09:15:06.870Z,51.62
2023-02-16T09:17:36.190Z,51.93
2023-02-16T09:20:05.959Z,51.95
2023-02-16T09:22:34.528Z,51.85
2023-02-16T09:25:04.070Z,51.69
2023-02-16T09:27:34.838Z,51.57
2023-02-16T09:30:04.207Z,51.61
2023-02-16T09:32:33.721Z,51.70
2023-02-16T09:35:02.162Z,51.62
2023-02-16T09:37:30.775Z,51.99
2023-02-16T09:39:59.755Z,51.75
2023-02-16T09:42:38.287Z,51.85
2023-02-16T09:45:11.441Z,51.60
2023-02-16T09:47:43.049Z,51.36
2023-02-16T09:50:38.624Z,51.72
2023-02-16T09:53:27.149Z,51.45
2023-02-16T09:56:20.291Z,51.60
2023-02-16T09:59:17.432Z,51.71
2023-02-16T10:01:57.246Z,51.87
2023-02-16T10:05:09.043Z,51.49
2023-02-16T10:07:57.609Z,51.63
2023-02-16T10:10:33.324Z,51.59
2023-02-16T10:13:06.145Z,51.18
2023-02-16T10:15:35.239Z,51.03
2023-02-16T10:18:33.808Z,51.19
2023-02-16T10:21:04.372Z,51.26
2023-02-16T10:24:05.451Z,51.09
2023-02-16T10:26:36.829Z,51.32
2023-02-16T10:29:16.138Z,51.39
2023-02-16T10:32:07.657Z,51.39
2023-02-16T10:34:57.589Z,51.27
2023-02-16T10:37:54.413Z,51.03
2023-02-16T10:40:29.146Z,51.28
2023-02-16T10:43:10.976Z,51.29
2023-02-16T10:45:51.904Z,51.09
2023-02-16T10:48:21.694Z,50.86
2023-02-16T10:50:59.107Z,50.94
2023-02-16T10:53:44.306Z,51.12
2023-02-16T10:56:52.627Z,51.11
2023-02-16T10:59:39.319Z,51.13
2023-02-16T11:02:20.978Z,51.83
2023-02-16T11:04:52.560Z,52.38
2023-02-16T11:07:25.701Z,52.29
2023-02-16T11:09:56.314Z,52.35
2023-02-16T11:12:34.367Z,52.75
2023-02-16T11:15:16.874Z,53.27
2023-02-16T11:17:58.362Z,53.00
2023-02-16T11:20:34.788Z,52.77
2023-02-16T11:31:39.429Z,53.70
2023-02-16T11:34:16.965Z,53.54
2023-02-16T11:36:47.272Z,53.48
2023-02-16T11:39:25.728Z,53.55
2023-02-16T11:42:01.734Z,54.17
2023-02-16T11:44:34.031Z,53.27
2023-02-16T11:47:21.424Z,52.60
2023-02-16T11:49:52.211Z,52.31
2023-02-16T11:52:23.227Z,52.91
2023-02-16T11:54:54.127Z,52.67
2023-02-16T11:57:33.796Z,53.01
2023-02-16T12:00:14.119Z,53.50
2023-02-16T12:03:08.745Z,53.33
2023-02-16T12:05:49.644Z,53.37
2023-02-16T12:08:25.105Z,52.84
2023-02-16T12:11:39.750Z,52.42
2023-02-16T12:14:27.479Z,53.22
2023-02-16T12:17:07.913Z,52.10
2023-02-16T12:19:36.212Z,52.21
2023-02-16T12:22:27.707Z,52.90
2023-02-16T12:25:31.610Z,53.43
2023-02-16T12:28:05.403Z,54.27
2023-02-16T12:30:52.862Z,54.67
2023-02-16T12:33:43.458Z,55.15
2023-02-16T12:36:24.034Z,55.07
2023-02-16T12:39:24.628Z,55.19
2023-02-16T12:42:12.201Z,55.52
2023-02-16T12:44:46.095Z,56.20
2023-02-16T12:47:21.480Z,56.21
2023-02-16T12:49:59.675Z,55.14
2023-02-16T12:53:03.159Z,55.03
2023-02-16T12:55:56.528Z,55.38
2023-02-16T12:58:31.462Z,56.00
2023-02-16T13:01:04.160Z,56.15
2023-02-16T13:03:32.909Z,56.21
2023-02-16T13:06:30.006Z,56.21
2023-02-16T13:09:27.908Z,55.52
2023-02-16T13:12:04.029Z,55.25
2023-02-16T13:14:34.523Z,55.51
2023-02-16T13:17:24.204Z,55.78
2023-02-16T13:19:52.874Z,56.19
2023-02-16T13:22:40.299Z,56.02
2023-02-16T13:25:31.611Z,55.16
2023-02-16T13:28:31.611Z,54.24
2023-02-16T13:31:18.506Z,54.56
2023-02-16T13:34:05.917Z,55.09
2023-02-16T13:36:49.892Z,54.74
2023-02-16T13:39:42.085Z,54.74
2023-02-16T13:42:35.642Z,54.99
2023-02-16T13:45:40.848Z,55.06
2023-02-16T13:48:21.775Z,55.55
2023-02-16T13:51:06.574Z,55.75
2023-02-16T13:53:37.999Z,55.89
2023-02-16T13:56:31.007Z,56.02
2023-02-16T13:59:18.676Z,56.20
2023-02-16T14:01:51.107Z,56.61
2023-02-16T14:04:22.424Z,56.24
2023-02-16T14:07:03.527Z,56.27
2023-02-16T14:09:37.939Z,56.39
2023-02-16T14:12:11.712Z,56.49
2023-02-16T14:14:43.030Z,56.56
2023-02-16T14:17:14.674Z,56.83
2023-02-16T14:20:02.304Z,56.97
2023-02-16T14:22:43.122Z,57.92
2023-02-16T14:25:22.545Z,58.28
2023-02-16T14:27:54.262Z,58.91
2023-02-16T14:30:36.363Z,58.81
2023-02-16T14:33:16.454Z,57.65
2023-02-16T14:36:14.323Z,56.75
2023-02-16T14:39:15.337Z,56.19
2023-02-16T14:41:45.466Z,56.46
2023-02-16T14:44:33.768Z,56.60
2023-02-16T14:47:23.042Z,56.56
2023-02-16T14:49:59.257Z,56.65
2023-02-16T14:52:47.547Z,56.86
2023-02-16T14:55:43.639Z,57.17
2023-02-16T14:58:23.499Z,57.31
2023-02-16T15:01:06.466Z,57.50
2023-02-16T15:03:40.466Z,57.58
2023-02-16T15:06:17.787Z,57.64
2023-02-16T15:08:49.041Z,57.34
2023-02-16T15:11:26.011Z,57.73
2023-02-16T15:13:54.864Z,57.59
2023-02-16T15:16:25.307Z,57.59
2023-02-16T15:18:54.755Z,57.76
2023-02-16T15:21:28.585Z,57.49
2023-02-16T15:24:00.941Z,57.43
2023-02-16T15:26:31.534Z,57.38
2023-02-16T15:29:01.615Z,57.17
2023-02-16T15:31:37.212Z,57.15
2023-02-16T15:34:13.806Z,57.25
2023-02-16T15:36:44.575Z,57.18
2023-02-16T15:39:28.253Z,57.32
2023-02-16T15:42:29.234Z,57.22
2023-02-16T15:44:58.251Z,57.34
2023-02-16T15:47:28.890Z,57.34
2023-02-16T15:49:57.073Z,57.39
2023-02-16T15:52:35.730Z,57.39
2023-02-16T15:55:05.374Z,57.54
2023-02-16T15:57:37.221Z,57.89
2023-02-16T16:00:15.960Z,58.15
2023-02-16T16:02:50.098Z,58.26
2023-02-16T16:05:25.926Z,58.65
2023-02-16T16:07:57.427Z,58.76
2023-02-16T16:10:40.424Z,58.96
2023-02-16T16:13:15.975Z,59.01
2023-02-16T16:15:48.767Z,58.98
2023-02-16T16:18:37.620Z,59.07
2023-02-16T16:21:19.175Z,59.01
2023-02-16T16:23:54.776Z,59.17
2023-02-16T16:26:23.822Z,59.25
2023-02-16T16:28:52.400Z,59.38
2023-02-16T16:31:20.798Z,59.12
2023-02-16T16:34:05.294Z,59.27
2023-02-16T16:36:47.095Z,59.60
2023-02-16T16:39:18.338Z,59.55
2023-02-16T16:42:12.035Z,59.88
2023-02-16T16:44:44.995Z,59.86
2023-02-16T16:47:19.660Z,60.00
2023-02-16T16:49:51.710Z,60.03
2023-02-16T16:52:59.244Z,59.68
2023-02-16T16:55:34.759Z,59.84
2023-02-16T16:58:08.267Z,60.00
2023-02-16T17:00:38.940Z,60.14
2023-02-16T17:03:08.579Z,60.09
2023-02-16T17:05:38.655Z,60.16
2023-02-16T17:08:08.471Z,60.43
2023-02-16T17:10:39.121Z,60.75
2023-02-16T17:13:08.154Z,60.92
2023-02-16T17:15:51.692Z,60.91
2023-02-16T17:18:21.190Z,60.86
2023-02-16T17:20:50.186Z,60.84
2023-02-16T17:23:19.084Z,60.76
2023-02-16T17:25:47.403Z,60.80
2023-02-16T17:28:17.204Z,60.96
2023-02-16T17:30:45.521Z,60.98
2023-02-16T17:33:14.338Z,60.64
2023-02-16T17:35:42.851Z,60.74
2023-02-16T17:38:13.258Z,60.91
2023-02-16T17:40:44.133Z,61.01
2023-02-16T17:43:13.659Z,60.74
2023-02-16T17:45:42.947Z,61.08
2023-02-16T17:48:22.317Z,60.95
2023-02-16T17:50:51.728Z,61.03
2023-02-16T17:53:21.708Z,61.03
2023-02-16T17:55:51.878Z,61.00
2023-02-16T17:58:23.966Z,61.14
2023-02-16T18:00:52.467Z,61.17
2023-02-16T18:03:23.091Z,61.38
2023-02-16T18:05:51.802Z,61.34
2023-02-16T18:08:20.710Z,61.56
2023-02-16T18:10:51.974Z,61.44
2023-02-16T18:13:20.550Z,61.47
2023-02-16T18:15:51.096Z,61.61
2023-02-16T18:18:20.095Z,61.64
2023-02-16T18:20:49.143Z,61.56
2023-02-16T18:23:18.330Z,61.57
2023-02-16T18:25:47.432Z,61.56
2023-02-16T18:28:20.744Z,61.87
2023-02-16T18:30:50.637Z,61.85
2023-02-16T18:33:22.048Z,61.87
2023-02-16T18:35:55.503Z,62.06
2023-02-16T18:38:24.215Z,61.97
2023-02-16T18:40:54.360Z,62.08
2023-02-16T18:43:23.323Z,62.12
2023-02-16T18:45:51.694Z,62.08
2023-02-16T18:48:20.056Z,62.05
2023-02-16T18:50:48.581Z,62.28
2023-02-16T18:53:17.144Z,62.27
2023-02-16T18:55:45.713Z,62.19
2023-02-16T18:58:14.924Z,62.10
2023-02-16T19:00:44.525Z,62.10
2023-02-16T19:03:13.572Z,62.10
2023-02-16T19:05:42.610Z,62.20
2023-02-16T19:08:11.001Z,62.13
2023-02-16T19:10:40.147Z,62.12
2023-02-16T19:13:08.772Z,62.03
2023-02-16T19:15:39.490Z,62.24
2023-02-16T19:18:08.473Z,62.01
2023-02-16T19:20:37.467Z,62.09
2023-02-16T19:23:06.426Z,62.29
2023-02-16T19:26:03.378Z,62.20
2023-02-16T19:28:43.830Z,61.90
2023-02-16T19:31:19.842Z,61.66
2023-02-16T19:33:48.569Z,61.76
2023-02-16T19:36:17.663Z,61.61
2023-02-16T19:38:46.733Z,61.29
2023-02-16T19:41:19.405Z,61.13
2023-02-16T19:43:47.901Z,61.21
2023-02-16T19:46:16.956Z,61.05
2023-02-16T19:48:46.556Z,60.99
2023-02-16T19:51:15.476Z,60.81
2023-02-16T19:53:47.148Z,60.79
2023-02-16T19:56:26.715Z,60.76
2023-02-16T19:59:01.325Z,60.80
2023-02-16T20:01:30.745Z,60.77
2023-02-16T20:04:00.233Z,60.90
2023-02-16T20:06:44.877Z,60.77
2023-02-16T20:09:17.478Z,60.71
2023-02-16T20:11:54.021Z,60.76
2023-02-16T20:14:28.324Z,60.77
2023-02-16T20:16:57.074Z,60.70
2023-02-16T20:19:29.876Z,60.73
2023-02-16T20:22:00.804Z,60.82
2023-02-16T20:24:30.852Z,60.78
2023-02-16T20:27:04.505Z,60.63
2023-02-16T20:29:33.071Z,60.59
2023-02-16T20:32:08.959Z,60.58
2023-02-16T20:34:43.109Z,60.98
2023-02-16T20:37:13.534Z,60.74
2023-02-16T20:39:43.252Z,60.44
2023-02-16T20:42:11.711Z,60.51
2023-02-16T20:44:40.380Z,60.57
2023-02-16T20:47:10.709Z,60.50
2023-02-16T20:49:39.855Z,60.61
2023-02-16T20:52:10.786Z,60.81
2023-02-16T20:54:39.348Z,60.28
2023-02-16T20:57:18.257Z,60.47
2023-02-16T21:00:28.169Z,60.30
2023-02-16T21:02:56.384Z,60.28
2023-02-16T21:05:24.705Z,60.49
2023-02-16T21:07:57.591Z,60.21
2023-02-16T21:10:54.984Z,60.15
2023-02-16T21:13:33.954Z,60.28
2023-02-16T21:16:03.384Z,60.31
2023-02-16T21:18:32.098Z,60.22
2023-02-16T21:21:01.641Z,60.53
2023-02-16T21:23:30.664Z,60.48
2023-02-16T21:26:00.581Z,60.52
2023-02-16T21:28:29.173Z,60.61
2023-02-16T21:31:01.990Z,60.44
2023-02-16T21:33:30.699Z,60.36
2023-02-16T21:36:05.554Z,60.27
2023-02-16T21:38:35.431Z,60.46
2023-02-16T21:41:26.514Z,60.28
2023-02-16T21:44:08.987Z,60.50
2023-02-16T21:46:41.131Z,60.22
2023-02-16T21:49:15.082Z,60.36
2023-02-16T21:51:43.889Z,60.27
2023-02-16T21:54:14.788Z,59.95
2023-02-16T21:56:45.784Z,59.94
2023-02-16T21:59:16.201Z,59.94
2023-02-16T22:01:46.640Z,59.71
2023-02-16T22:04:16.499Z,59.41
2023-02-16T22:06:46.980Z,59.18
2023-02-16T22:09:17.945Z,59.30
2023-02-16T22:11:46.828Z,59.53
2023-02-16T22:14:15.509Z,59.50
2023-02-16T22:16:48.060Z,59.64
2023-02-16T22:19:17.972Z,59.26
2023-02-16T22:21:46.797Z,59.40
2023-02-16T22:24:17.106Z,59.18
2023-02-16T22:26:47.539Z,59.23
2023-02-16T22:29:15.982Z,59.01
2023-02-16T22:32:13.145Z,58.98
2023-02-16T22:34:42.181Z,58.88
2023-02-16T22:37:12.031Z,58.95
2023-02-16T22:39:42.102Z,58.78
2023-02-16T22:42:12.072Z,58.90
2023-02-16T22:44:42.905Z,58.63
2023-02-16T22:47:12.759Z,58.78
2023-02-16T22:49:42.941Z,58.69
2023-02-16T22:52:12.141Z,58.70
2023-02-16T22:54:41.307Z,58.68
2023-02-16T22:57:10.203Z,58.86
2023-02-16T22:59:41.156Z,58.94
2023-02-16T23:02:10.504Z,58.85
2023-02-16T23:04:41.208Z,59.22
2023-02-16T23:07:10.916Z,59.29
2023-02-16T23:09:39.536Z,59.26
2023-02-16T23:12:08.237Z,59.46
2023-02-16T23:14:37.601Z,59.53
2023-02-16T23:17:06.029Z,59.19
2023-02-16T23:19:34.501Z,59.47
2023-02-16T23:22:02.887Z,59.14
2023-02-16T23:24:31.811Z,59.06
2023-02-16T23:27:00.722Z,59.02
2023-02-16T23:29:29.288Z,58.75
2023-02-16T23:31:57.930Z,58.57
2023-02-16T23:34:26.389Z,58.45
2023-02-16T23:36:55.432Z,58.49
2023-02-16T23:39:24.393Z,58.19
2023-02-16T23:41:53.162Z,58.10
2023-02-16T23:44:22.064Z,58.09
2023-02-16T23:46:50.495Z,58.08
2023-02-16T23:49:18.971Z,57.66
2023-02-16T23:51:47.308Z,57.71
2023-02-16T23:54:15.974Z,57.79
2023-02-16T23:56:44.300Z,57.37
2023-02-16T23:59:12.762Z,57.38
